Time;durP1;ratioP1;P1;durP2;ratioP2;P2;SDS_P1;SDS_P2;PMS_P1;PMS_P2;Temp;Humidity;BMP_temperature;BMP_pressure;BME280_temperature;BME280_humidity;BME280_pressure;Samples;Min_cycle;Max_cycle;Signal;HPM_P1;HPM_P2
2023/02/20 00:02:36;0.00;0.00;0.62;0.00;0.00;0.62;3.00;2.70;;;23.10;24.20;;;;;;2264344;61;20419;-68
2023/02/20 00:05:21;0.00;0.00;0.62;0.00;0.00;0.62;2.87;2.57;;;23.00;24.10;;;;;;2264047;61;20904;-66
2023/02/20 00:08:07;0.00;0.00;0.62;0.00;0.00;0.62;3.20;2.67;;;23.10;24.20;;;;;;2264389;61;20404;-66
2023/02/20 00:10:52;0.00;0.00;0.62;0.00;0.00;0.62;2.97;2.67;;;23.10;24.20;;;;;;2263882;61;20412;-71
2023/02/20 00:13:37;0.00;0.00;0.62;0.00;0.00;0.62;2.60;2.17;;;23.00;24.10;;;;;;2260469;61;20473;-68
2023/02/20 00:16:22;0.00;0.00;0.62;0.00;0.00;0.62;2.37;1.90;;;23.00;24.60;;;;;;2264274;61;20453;-66
2023/02/20 00:19:07;0.00;0.00;0.62;0.00;0.00;0.62;2.90;2.33;;;23.00;24.10;;;;;;2263951;61;20359;-66
2023/02/20 00:21:53;0.00;0.00;0.62;0.00;0.00;0.62;2.47;2.07;;;23.00;24.10;;;;;;2263883;61;20376;-65
2023/02/20 00:24:40;0.00;0.00;0.62;0.00;0.00;0.62;3.60;2.40;;;23.00;24.10;;;;;;2264249;61;20368;-66
2023/02/20 00:27:25;0.00;0.00;0.62;0.00;0.00;0.62;2.87;2.50;;;23.00;24.10;;;;;;2263664;61;20368;-66
2023/02/20 00:30:14;0.00;0.00;0.62;0.00;0.00;0.62;3.10;2.73;;;23.00;24.10;;;;;;2263144;61;20403;-67
2023/02/20 00:32:59;0.00;0.00;0.62;0.00;0.00;0.62;3.00;2.37;;;22.90;24.00;;;;;;2263912;61;20538;-66
2023/02/20 00:35:45;0.00;0.00;0.62;0.00;0.00;0.62;3.13;2.37;;;23.00;24.10;;;;;;2264078;61;20360;-66
2023/02/20 00:38:30;0.00;0.00;0.62;0.00;0.00;0.62;3.17;2.63;;;23.00;24.10;;;;;;2264209;61;20379;-70
2023/02/20 00:41:16;0.00;0.00;0.62;0.00;0.00;0.62;2.40;2.07;;;23.00;24.10;;;;;;2263720;61;20352;-65
2023/02/20 00:44:02;0.00;0.00;0.62;0.00;0.00;0.62;3.47;1.83;;;22.90;24.00;;;;;;2260712;61;20452;-66
2023/02/20 00:46:47;0.00;0.00;0.62;0.00;0.00;0.62;2.70;2.17;;;23.00;24.10;;;;;;2264213;61;20414;-67
2023/02/20 00:49:32;0.00;0.00;0.62;0.00;0.00;0.62;2.20;2.00;;;22.90;24.00;;;;;;2263495;61;20407;-66
2023/02/20 00:52:27;0.00;0.00;0.62;0.00;0.00;0.62;2.63;2.20;;;22.90;24.00;;;;;;2263738;61;20553;-66
2023/02/20 00:55:13;0.00;0.00;0.62;0.00;0.00;0.62;2.30;2.00;;;22.90;24.00;;;;;;2263468;61;20360;-66
2023/02/20 00:58:00;0.00;0.00;0.62;0.00;0.00;0.62;2.17;1.87;;;22.90;24.00;;;;;;2263920;61;20375;-66
2023/02/20 01:00:44;0.00;0.00;0.62;0.00;0.00;0.62;3.10;2.70;;;22.90;24.00;;;;;;2263722;61;20413;-67
2023/02/20 01:03:29;0.00;0.00;0.62;0.00;0.00;0.62;2.77;2.03;;;22.90;24.00;;;;;;2264149;61;20422;-66
2023/02/20 01:06:16;0.00;0.00;0.62;0.00;0.00;0.62;2.30;2.10;;;22.90;24.00;;;;;;2264714;61;20364;-66
2023/02/20 01:09:02;0.00;0.00;0.62;0.00;0.00;0.62;2.10;1.50;;;22.90;24.00;;;;;;2264492;61;20919;-66
2023/02/20 01:11:46;0.00;0.00;0.62;0.00;0.00;0.62;2.57;1.80;;;22.90;24.00;;;;;;2260923;61;20424;-69
2023/02/20 01:14:34;0.00;0.00;0.62;0.00;0.00;0.62;2.10;1.47;;;22.90;24.10;;;;;;2264180;61;20411;-66
2023/02/20 01:17:19;0.00;0.00;0.62;0.00;0.00;0.62;2.70;1.90;;;22.90;24.00;;;;;;2261485;61;20767;-66
2023/02/20 01:20:07;0.00;0.00;0.62;0.00;0.00;0.62;2.73;1.90;;;22.90;24.10;;;;;;2263831;61;20359;-66
2023/02/20 01:22:52;0.00;0.00;0.62;0.00;0.00;0.62;2.33;1.80;;;22.90;24.10;;;;;;2264666;61;20462;-66
2023/02/20 01:25:37;0.00;0.00;0.62;0.00;0.00;0.62;2.20;1.90;;;22.90;24.10;;;;;;2261407;61;20364;-65
2023/02/20 01:28:22;0.00;0.00;0.62;0.00;0.00;0.62;2.60;2.00;;;22.90;24.10;;;;;;2264981;61;20776;-68
2023/02/20 01:31:08;0.00;0.00;0.62;0.00;0.00;0.62;1.90;1.30;;;22.90;24.10;;;;;;2264210;61;20451;-66
2023/02/20 01:33:52;0.00;0.00;0.62;0.00;0.00;0.62;1.90;1.47;;;22.90;24.10;;;;;;2264018;61;20376;-67
2023/02/20 01:36:37;0.00;0.00;0.62;0.00;0.00;0.62;2.33;2.00;;;22.80;24.00;;;;;;2261407;61;20352;-65
2023/02/20 01:39:24;0.00;0.00;0.62;0.00;0.00;0.62;2.03;1.47;;;22.80;24.00;;;;;;2264673;61;20391;-65
2023/02/20 01:42:17;0.00;0.00;0.62;0.00;0.00;0.62;2.10;1.47;;;22.80;24.00;;;;;;2261183;61;20430;-66
2023/02/20 01:45:31;0.00;0.00;0.62;0.00;0.00;0.62;2.40;1.83;;;22.80;24.00;;;;;;2492527;53;20497;-65
2023/02/20 01:48:22;0.00;0.00;0.62;0.00;0.00;0.62;2.17;1.43;;;22.80;24.00;;;;;;2254519;61;20436;-65
2023/02/20 01:51:07;0.00;0.00;0.62;0.00;0.00;0.62;1.60;1.20;;;22.80;24.00;;;;;;2257036;61;20445;-66
2023/02/20 01:53:52;0.00;0.00;0.62;0.00;0.00;0.62;2.10;1.30;;;22.80;24.00;;;;;;2257914;61;20417;-65
2023/02/20 01:56:37;0.00;0.00;0.62;0.00;0.00;0.62;1.90;1.27;;;22.80;24.50;;;;;;2257102;61;20369;-67
2023/02/20 01:59:23;0.00;0.00;0.62;0.00;0.00;0.62;2.27;1.60;;;22.80;24.00;;;;;;2258079;61;20510;-65
2023/02/20 02:02:10;0.00;0.00;0.62;0.00;0.00;0.62;1.90;1.27;;;22.80;24.00;;;;;;2264807;61;20419;-66
2023/02/20 02:04:56;0.00;0.00;0.62;0.00;0.00;0.62;2.63;1.93;;;22.80;24.00;;;;;;2261756;61;20399;-65
2023/02/20 02:07:41;0.00;0.00;0.62;0.00;0.00;0.62;2.43;1.50;;;22.70;23.90;;;;;;2259666;61;20520;-66
2023/02/20 02:10:31;0.00;0.00;0.62;0.00;0.00;0.62;1.80;1.47;;;22.70;24.00;;;;;;2265108;61;20789;-66
2023/02/20 02:13:15;0.00;0.00;0.62;0.00;0.00;0.62;1.53;1.10;;;22.70;24.00;;;;;;2262366;61;20791;-66
2023/02/20 02:16:10;0.00;0.00;0.62;0.00;0.00;0.62;2.00;1.50;;;22.70;24.00;;;;;;2266189;61;20414;-66
2023/02/20 02:19:03;0.00;0.00;0.62;0.00;0.00;0.62;1.80;1.40;;;22.70;23.90;;;;;;2265560;61;20360;-67
2023/02/20 02:22:53;0.00;0.00;0.62;0.00;0.00;0.62;1.70;1.23;;;22.70;24.00;;;;;;2264316;55;20439;-66
2023/02/20 02:25:50;0.00;0.00;0.62;0.00;0.00;0.62;2.23;1.40;;;22.70;24.00;;;;;;2247041;61;20439;-65
2023/02/20 02:29:20;0.00;0.00;0.62;0.00;0.00;0.62;2.00;1.40;;;22.70;24.00;;;;;;2248263;61;20972;-67
2023/02/20 02:32:55;0.00;0.00;0.62;0.00;0.00;0.62;2.17;1.60;;;22.70;24.00;;;;;;2257435;61;20802;-66
2023/02/20 02:36:29;0.00;0.00;0.62;0.00;0.00;0.62;1.83;1.23;;;22.70;24.00;;;;;;2244399;61;20542;-66
2023/02/20 02:39:24;0.00;0.00;0.62;0.00;0.00;0.62;1.60;1.30;;;22.70;24.00;;;;;;2247809;61;20961;-66
2023/02/20 02:42:19;0.00;0.00;0.62;0.00;0.00;0.62;1.70;1.23;;;22.60;23.90;;;;;;2256783;61;20378;-66
2023/02/20 02:45:14;0.00;0.00;0.62;0.00;0.00;0.62;1.80;1.13;;;22.60;24.00;;;;;;2254331;61;20376;-66
2023/02/20 02:48:12;0.00;0.00;0.62;0.00;0.00;0.62;1.90;1.40;;;22.60;23.90;;;;;;2253838;61;20425;-66
2023/02/20 02:51:04;0.00;0.00;0.62;0.00;0.00;0.62;1.80;1.20;;;22.60;24.00;;;;;;2256751;61;20404;-67
2023/02/20 02:54:05;0.00;0.00;0.62;0.00;0.00;0.62;1.77;1.13;;;22.60;23.90;;;;;;2257295;61;20879;-66
2023/02/20 02:56:52;0.00;0.00;0.62;0.00;0.00;0.62;2.47;1.50;;;22.60;23.90;;;;;;2257635;61;20908;-66
2023/02/20 02:59:37;0.00;0.00;0.62;0.00;0.00;0.62;1.97;1.27;;;22.60;23.90;;;;;;2256866;61;20354;-66
2023/02/20 03:02:24;0.00;0.00;0.62;0.00;0.00;0.62;1.80;1.17;;;22.60;24.00;;;;;;2257384;61;20385;-66
2023/02/20 03:05:14;0.00;0.00;0.62;0.00;0.00;0.62;1.73;1.37;;;22.60;24.00;;;;;;2257189;61;20413;-65
2023/02/20 03:08:00;0.00;0.00;0.62;0.00;0.00;0.62;1.70;1.20;;;22.60;24.00;;;;;;2257164;61;20789;-68
2023/02/20 03:10:45;0.00;0.00;0.62;0.00;0.00;0.62;1.63;1.13;;;22.60;23.90;;;;;;2253761;61;20366;-66
2023/02/20 03:16:45;0.00;0.00;0.62;0.00;0.00;0.62;1.60;1.20;;;22.60;24.00;;;;;;2256647;61;20377;-67
2023/02/20 03:19:35;0.00;0.00;0.62;0.00;0.00;0.62;1.70;1.07;;;22.60;23.90;;;;;;2256650;61;20938;-68
2023/02/20 03:22:25;0.00;0.00;0.62;0.00;0.00;0.62;2.60;1.10;;;22.60;23.90;;;;;;2257194;61;20824;-65
2023/02/20 03:25:17;0.00;0.00;0.62;0.00;0.00;0.62;1.70;1.40;;;22.60;23.90;;;;;;2256694;61;20776;-66
2023/02/20 03:28:07;0.00;0.00;0.62;0.00;0.00;0.62;1.90;1.07;;;22.50;23.90;;;;;;2256868;61;20366;-65
2023/02/20 03:30:58;0.00;0.00;0.62;0.00;0.00;0.62;1.50;0.90;;;22.60;24.00;;;;;;2253701;61;20405;-65
2023/02/20 03:43:24;0.00;0.00;0.62;0.00;0.00;0.62;1.97;1.53;;;22.50;23.90;;;;;;2254658;61;20461;-65
2023/02/20 03:46:18;0.00;0.00;0.62;0.00;0.00;0.62;1.60;1.30;;;22.50;23.90;;;;;;2256624;61;20417;-65
2023/02/20 03:49:09;0.00;0.00;0.62;0.00;0.00;0.62;1.57;0.90;;;22.50;23.90;;;;;;2251171;61;20562;-64
2023/02/20 03:51:58;0.00;0.00;0.62;0.00;0.00;0.62;1.70;1.10;;;22.50;23.90;;;;;;2256604;61;20389;-64
2023/02/20 03:55:04;0.00;0.00;0.62;0.00;0.00;0.62;1.37;0.90;;;22.50;23.90;;;;;;2257117;61;20844;-65
2023/02/20 03:57:54;0.00;0.00;0.62;0.00;0.00;0.62;1.60;1.23;;;22.50;23.90;;;;;;2256717;61;20783;-65
2023/02/20 04:00:46;0.00;0.00;0.62;0.00;0.00;0.62;2.90;1.10;;;22.50;24.40;;;;;;2256806;61;20366;-65
2023/02/20 04:03:39;0.00;0.00;0.62;0.00;0.00;0.62;1.40;0.97;;;22.50;23.90;;;;;;2253815;61;20771;-66
2023/02/20 04:06:30;0.00;0.00;0.62;0.00;0.00;0.62;1.73;1.10;;;22.50;23.90;;;;;;2256668;61;20362;-66
2023/02/20 04:09:20;0.00;0.00;0.62;0.00;0.00;0.62;1.80;1.10;;;22.40;23.80;;;;;;2256599;61;20933;-65
2023/02/20 04:12:12;0.00;0.00;0.62;0.00;0.00;0.62;1.50;1.00;;;22.50;23.90;;;;;;2256635;61;20389;-65
2023/02/20 04:15:02;0.00;0.00;0.62;0.00;0.00;0.62;1.40;0.90;;;22.40;23.80;;;;;;2256726;61;20386;-65
2023/02/20 04:17:54;0.00;0.00;0.62;0.00;0.00;0.62;2.17;1.10;;;22.40;23.80;;;;;;2256850;61;20361;-68
2023/02/20 04:20:39;0.00;0.00;0.62;0.00;0.00;0.62;2.50;1.20;;;22.50;23.90;;;;;;2256418;61;20406;-65
2023/02/20 04:23:40;0.00;0.00;0.62;0.00;0.00;0.62;1.50;0.97;;;22.40;23.80;;;;;;2255795;61;20413;-65
2023/02/20 04:26:25;0.00;0.00;0.62;0.00;0.00;0.62;2.10;1.30;;;22.40;23.80;;;;;;2256386;61;20370;-67
2023/02/20 04:29:11;0.00;0.00;0.62;0.00;0.00;0.62;1.60;1.07;;;22.40;23.80;;;;;;2256581;61;20385;-66
2023/02/20 04:31:56;0.00;0.00;0.62;0.00;0.00;0.62;2.07;1.03;;;22.40;23.80;;;;;;2256411;61;20393;-65
2023/02/20 04:34:45;0.00;0.00;0.62;0.00;0.00;0.62;1.63;1.00;;;22.40;23.80;;;;;;2256502;61;20906;-65
2023/02/20 04:37:30;0.00;0.00;0.62;0.00;0.00;0.62;1.43;0.90;;;22.40;23.90;;;;;;2256690;61;20347;-67
2023/02/20 04:40:19;0.00;0.00;0.62;0.00;0.00;0.62;1.40;0.90;;;22.40;23.80;;;;;;2253622;61;20402;-65
2023/02/20 04:43:05;0.00;0.00;0.62;0.00;0.00;0.62;1.33;0.90;;;22.40;23.90;;;;;;2256289;61;20476;-66
2023/02/20 04:45:50;0.00;0.00;0.62;0.00;0.00;0.62;1.67;1.00;;;22.40;23.80;;;;;;2256810;61;20408;-65
2023/02/20 04:48:36;0.00;0.00;0.62;0.00;0.00;0.62;1.50;1.10;;;22.40;23.90;;;;;;2253968;61;20359;-66
2023/02/20 04:51:23;0.00;0.00;0.62;0.00;0.00;0.62;1.60;1.10;;;22.40;23.80;;;;;;2257047;61;20891;-65
2023/02/20 04:54:08;0.00;0.00;0.62;0.00;0.00;0.62;1.57;1.00;;;22.40;23.80;;;;;;2253480;61;20994;-65
2023/02/20 04:56:53;0.00;0.00;0.62;0.00;0.00;0.62;2.33;1.07;;;22.40;23.80;;;;;;2256852;61;20367;-66
2023/02/20 04:59:39;0.00;0.00;0.62;0.00;0.00;0.62;1.90;1.20;;;22.40;23.80;;;;;;2256466;61;20366;-65
2023/02/20 05:02:24;0.00;0.00;0.62;0.00;0.00;0.62;1.90;1.03;;;22.40;23.80;;;;;;2256496;61;20465;-65
2023/02/20 05:05:17;0.00;0.00;0.62;0.00;0.00;0.62;1.50;1.10;;;22.40;23.80;;;;;;2257054;61;20354;-66
2023/02/20 05:08:06;0.00;0.00;0.62;0.00;0.00;0.62;1.53;1.03;;;22.40;23.80;;;;;;2257099;61;20381;-65
2023/02/20 05:10:51;0.00;0.00;0.62;0.00;0.00;0.62;1.50;0.90;;;22.40;23.80;;;;;;2256742;61;20374;-66
2023/02/20 05:13:36;0.00;0.00;0.62;0.00;0.00;0.62;1.53;1.17;;;22.30;23.80;;;;;;2257309;61;20381;-66
2023/02/20 05:16:20;0.00;0.00;0.62;0.00;0.00;0.62;1.60;1.20;;;22.30;23.80;;;;;;2256765;61;20693;-66
2023/02/20 05:19:06;0.00;0.00;0.62;0.00;0.00;0.62;1.80;1.17;;;22.30;23.80;;;;;;2256718;61;20397;-65
2023/02/20 05:24:56;0.00;0.00;0.62;0.00;0.00;0.62;1.70;1.17;;;22.30;23.80;;;;;;2257097;61;20904;-66
2023/02/20 05:27:41;0.00;0.00;0.62;0.00;0.00;0.62;1.77;1.00;;;22.30;23.80;;;;;;2256130;61;20370;-66
2023/02/20 05:30:26;0.00;0.00;0.62;0.00;0.00;0.62;1.70;1.10;;;22.30;23.80;;;;;;2256608;61;20357;-66
2023/02/20 05:33:11;0.00;0.00;0.62;0.00;0.00;0.62;1.57;0.93;;;22.30;23.80;;;;;;2256322;61;20436;-66
2023/02/20 05:35:55;0.00;0.00;0.62;0.00;0.00;0.62;1.63;1.10;;;22.30;23.80;;;;;;2257333;61;20366;-67
2023/02/20 05:38:46;0.00;0.00;0.62;0.00;0.00;0.62;1.57;1.00;;;22.30;23.80;;;;;;2256898;61;20369;-67
2023/02/20 05:41:32;0.00;0.00;0.62;0.00;0.00;0.62;2.07;1.10;;;22.30;23.80;;;;;;2256953;61;20366;-67
2023/02/20 05:44:17;0.00;0.00;0.62;0.00;0.00;0.62;1.50;1.00;;;22.30;23.80;;;;;;2256461;61;20450;-66
2023/02/20 05:47:02;0.00;0.00;0.62;0.00;0.00;0.62;1.57;1.07;;;22.30;23.80;;;;;;2257149;61;20381;-65
2023/02/20 05:49:47;0.00;0.00;0.62;0.00;0.00;0.62;1.70;1.03;;;22.30;23.80;;;;;;2257037;61;21016;-66
2023/02/20 05:52:32;0.00;0.00;0.62;0.00;0.00;0.62;1.60;1.00;;;22.30;23.80;;;;;;2257513;61;20673;-66
2023/02/20 05:55:17;0.00;0.00;0.62;0.00;0.00;0.62;1.70;1.10;;;22.30;23.80;;;;;;2257617;61;20381;-66
2023/02/20 05:58:03;0.00;0.00;0.62;0.00;0.00;0.62;1.80;1.00;;;22.30;23.80;;;;;;2257615;61;20366;-66
2023/02/20 06:00:48;0.00;0.00;0.62;0.00;0.00;0.62;1.50;0.90;;;22.30;23.80;;;;;;2256807;61;20424;-67
2023/02/20 06:03:32;0.00;0.00;0.62;0.00;0.00;0.62;2.17;1.17;;;22.20;23.70;;;;;;2257420;61;20428;-68
2023/02/20 06:06:18;0.00;0.00;0.62;0.00;0.00;0.62;1.70;1.10;;;22.20;23.80;;;;;;2257370;61;20353;-66
2023/02/20 06:09:06;0.00;0.00;0.62;0.00;0.00;0.62;1.60;1.00;;;22.20;23.70;;;;;;2257528;61;20365;-66
2023/02/20 06:11:54;0.00;0.00;0.62;0.00;0.00;0.62;1.80;1.20;;;22.20;24.30;;;;;;2254387;61;20410;-67
2023/02/20 06:14:41;0.00;0.00;0.62;0.00;0.00;0.62;1.80;1.10;;;22.20;23.70;;;;;;2257377;61;20818;-67
2023/02/20 06:17:26;0.00;0.00;0.62;0.00;0.00;0.62;1.90;1.20;;;22.20;23.70;;;;;;2257719;61;20354;-66
2023/02/20 06:20:11;0.00;0.00;0.62;0.00;0.00;0.62;1.63;1.10;;;22.20;23.70;;;;;;2257154;61;20417;-66
2023/02/20 06:22:56;0.00;0.00;0.62;0.00;0.00;0.62;2.50;1.37;;;22.20;23.70;;;;;;2257182;61;20377;-66
2023/02/20 06:25:41;0.00;0.00;0.62;0.00;0.00;0.62;2.10;1.40;;;22.20;23.80;;;;;;2257854;61;20370;-67
2023/02/20 06:28:26;0.00;0.00;0.62;0.00;0.00;0.62;1.80;1.27;;;22.20;23.80;;;;;;2257211;61;20417;-67
2023/02/20 06:31:13;0.00;0.00;0.62;0.00;0.00;0.62;2.10;1.60;;;22.20;23.80;;;;;;2257262;61;20374;-68
2023/02/20 06:33:58;0.00;0.00;0.62;0.00;0.00;0.62;2.53;1.87;;;22.20;23.80;;;;;;2257261;61;20397;-67
2023/02/20 06:36:42;0.00;0.00;0.62;0.00;0.00;0.62;2.37;1.63;;;22.20;23.80;;;;;;2257506;61;20462;-65
2023/02/20 06:39:28;0.00;0.00;0.62;0.00;0.00;0.62;3.17;1.90;;;22.20;23.80;;;;;;2257477;61;20489;-65
2023/02/20 06:42:12;0.00;0.00;0.62;0.00;0.00;0.62;2.70;1.70;;;22.20;23.80;;;;;;2256947;61;20378;-66
2023/02/20 06:44:58;0.00;0.00;0.62;0.00;0.00;0.62;1.97;1.40;;;22.20;23.80;;;;;;2257055;61;20362;-67
2023/02/20 06:47:47;0.00;0.00;0.62;0.00;0.00;0.62;3.43;2.10;;;22.20;23.80;;;;;;2257314;61;20450;-66
2023/02/20 06:50:31;0.00;0.00;0.62;0.00;0.00;0.62;2.90;2.07;;;22.20;23.80;;;;;;2256748;61;20362;-65
2023/02/20 06:53:16;0.00;0.00;0.62;0.00;0.00;0.62;3.50;2.30;;;22.20;23.80;;;;;;2256807;61;20409;-65
2023/02/20 06:56:00;0.00;0.00;0.62;0.00;0.00;0.62;2.63;1.93;;;22.20;23.80;;;;;;2254123;61;20428;-66
2023/02/20 06:58:50;0.00;0.00;0.62;0.00;0.00;0.62;2.70;2.20;;;22.20;23.80;;;;;;2257390;61;20385;-66
2023/02/20 07:01:41;0.00;0.00;0.62;0.00;0.00;0.62;3.27;2.27;;;22.20;23.80;;;;;;2257166;61;20353;-66
2023/02/20 07:04:27;0.00;0.00;0.62;0.00;0.00;0.62;2.40;1.83;;;22.20;23.80;;;;;;2257546;61;20460;-68
2023/02/20 07:07:12;0.00;0.00;0.62;0.00;0.00;0.62;3.00;2.13;;;22.20;23.80;;;;;;2256638;61;20941;-65
2023/02/20 07:10:00;0.00;0.00;0.62;0.00;0.00;0.62;2.90;2.23;;;22.20;23.80;;;;;;2256908;61;20413;-65
2023/02/20 07:12:45;0.00;0.00;0.62;0.00;0.00;0.62;3.60;2.50;;;22.20;23.80;;;;;;2257138;61;20397;-66
2023/02/20 07:15:32;0.00;0.00;0.62;0.00;0.00;0.62;3.30;2.50;;;22.20;23.80;;;;;;2257015;61;20389;-66
2023/02/20 07:18:17;0.00;0.00;0.62;0.00;0.00;0.62;3.20;2.50;;;22.10;23.80;;;;;;2257207;61;20361;-66
2023/02/20 07:21:04;0.00;0.00;0.62;0.00;0.00;0.62;3.30;2.30;;;22.10;23.80;;;;;;2257179;61;20445;-65
2023/02/20 07:23:49;0.00;0.00;0.62;0.00;0.00;0.62;2.20;1.73;;;22.10;23.80;;;;;;2257380;61;20809;-66
2023/02/20 07:26:36;0.00;0.00;0.62;0.00;0.00;0.62;2.93;2.10;;;22.10;23.80;;;;;;2256848;61;20358;-65
2023/02/20 07:29:24;0.00;0.00;0.62;0.00;0.00;0.62;2.37;1.93;;;22.10;23.80;;;;;;2256341;61;20366;-66
2023/02/20 07:32:09;0.00;0.00;0.62;0.00;0.00;0.62;3.80;3.00;;;22.10;23.80;;;;;;2256896;61;20443;-65
2023/02/20 07:34:53;0.00;0.00;0.62;0.00;0.00;0.62;2.60;2.00;;;22.10;23.80;;;;;;2256694;61;20362;-66
2023/02/20 07:37:39;0.00;0.00;0.62;0.00;0.00;0.62;2.73;2.20;;;22.10;24.30;;;;;;2257003;61;20366;-66
2023/02/20 07:40:24;0.00;0.00;0.62;0.00;0.00;0.62;4.13;2.23;;;22.10;23.80;;;;;;2256614;61;20416;-66
2023/02/20 07:43:09;0.00;0.00;0.62;0.00;0.00;0.62;2.13;1.80;;;22.10;23.80;;;;;;2256957;61;20540;-66
2023/02/20 07:45:56;0.00;0.00;0.62;0.00;0.00;0.62;3.23;2.43;;;22.10;24.30;;;;;;2257287;61;20446;-65
2023/02/20 07:48:40;0.00;0.00;0.62;0.00;0.00;0.62;3.10;2.20;;;22.10;23.80;;;;;;2256753;61;20362;-65
2023/02/20 07:51:25;0.00;0.00;0.62;0.00;0.00;0.62;3.50;2.20;;;22.10;23.80;;;;;;2256516;61;20377;-66
2023/02/20 07:54:11;0.00;0.00;0.62;0.00;0.00;0.62;2.57;2.00;;;22.10;23.80;;;;;;2257165;61;20362;-65
2023/02/20 07:56:56;0.00;0.00;0.62;0.00;0.00;0.62;2.83;2.17;;;22.10;23.80;;;;;;2256917;61;20914;-64
2023/02/20 07:59:41;0.00;0.00;0.62;0.00;0.00;0.62;3.70;2.30;;;22.10;23.80;;;;;;2257006;61;20417;-65
2023/02/20 08:02:25;0.00;0.00;0.62;0.00;0.00;0.62;4.00;2.40;;;22.10;23.80;;;;;;2257404;61;20377;-66
2023/02/20 08:05:10;0.00;0.00;0.62;0.00;0.00;0.62;3.60;2.47;;;22.10;23.80;;;;;;2257219;61;20373;-65
2023/02/20 08:07:55;0.00;0.00;0.62;0.00;0.00;0.62;2.80;2.10;;;22.10;23.80;;;;;;2257362;61;20939;-66
2023/02/20 08:10:41;0.00;0.00;0.62;0.00;0.00;0.62;2.80;2.47;;;22.10;23.80;;;;;;2256766;61;20361;-65
2023/02/20 08:13:27;0.00;0.00;0.62;0.00;0.00;0.62;3.40;2.33;;;22.10;23.80;;;;;;2256646;61;20524;-65
2023/02/20 08:16:11;0.00;0.00;0.62;0.00;0.00;0.62;2.77;2.30;;;22.10;23.80;;;;;;2257250;61;20362;-66
2023/02/20 08:18:56;0.00;0.00;0.62;0.00;0.00;0.62;3.10;2.50;;;22.10;23.80;;;;;;2257267;61;20448;-66
2023/02/20 08:21:41;0.00;0.00;0.62;0.00;0.00;0.62;3.80;2.63;;;22.10;23.80;;;;;;2257281;61;20447;-67
2023/02/20 08:24:25;0.00;0.00;0.62;0.00;0.00;0.62;3.60;2.80;;;22.10;23.80;;;;;;2253865;61;20423;-65
2023/02/20 08:27:11;0.00;0.00;0.62;0.00;0.00;0.62;3.73;2.70;;;22.10;23.80;;;;;;2257006;61;20389;-66
2023/02/20 08:29:56;0.00;0.00;0.62;0.00;0.00;0.62;3.20;2.40;;;22.10;23.80;;;;;;2256612;61;20416;-65
2023/02/20 08:32:41;0.00;0.00;0.62;0.00;0.00;0.62;3.47;3.13;;;22.10;23.80;;;;;;2257481;61;20398;-67
2023/02/20 08:35:26;0.00;0.00;0.62;0.00;0.00;0.62;3.10;2.33;;;22.10;23.80;;;;;;2257049;61;20365;-65
2023/02/20 08:38:25;0.00;0.00;0.62;0.00;0.00;0.62;4.27;2.87;;;22.10;23.80;;;;;;2257434;61;20913;-65
2023/02/20 08:41:11;0.00;0.00;0.62;0.00;0.00;0.62;2.60;2.40;;;22.10;23.90;;;;;;2256739;61;20424;-64
2023/02/20 08:43:57;0.00;0.00;0.62;0.00;0.00;0.62;3.70;2.60;;;22.10;23.90;;;;;;2256726;61;20469;-65
2023/02/20 08:46:47;0.00;0.00;0.62;0.00;0.00;0.62;4.33;3.10;;;22.10;23.90;;;;;;2256746;61;20428;-66
2023/02/20 08:49:32;0.00;0.00;0.62;0.00;0.00;0.62;3.57;2.67;;;22.10;23.90;;;;;;2257041;61;20369;-66
2023/02/20 08:52:18;0.00;0.00;0.62;0.00;0.00;0.62;2.83;2.40;;;22.10;23.90;;;;;;2253926;61;20390;-68
2023/02/20 08:55:04;0.00;0.00;0.62;0.00;0.00;0.62;3.90;2.60;;;22.10;23.90;;;;;;2257099;61;20405;-66
2023/02/20 08:57:49;0.00;0.00;0.62;0.00;0.00;0.62;3.00;2.50;;;22.10;23.90;;;;;;2253828;61;20416;-64
2023/02/20 09:00:35;0.00;0.00;0.62;0.00;0.00;0.62;3.67;2.93;;;22.10;23.90;;;;;;2256725;61;20481;-65
2023/02/20 09:03:20;0.00;0.00;0.62;0.00;0.00;0.62;3.07;2.57;;;22.10;23.90;;;;;;2257568;61;20381;-65
2023/02/20 09:06:05;0.00;0.00;0.62;0.00;0.00;0.62;2.93;2.43;;;22.10;23.90;;;;;;2257154;61;20828;-66
2023/02/20 09:08:50;0.00;0.00;0.62;0.00;0.00;0.62;3.53;3.03;;;22.10;23.90;;;;;;2256885;61;20901;-65
2023/02/20 09:11:35;0.00;0.00;0.62;0.00;0.00;0.62;4.37;3.37;;;22.20;23.90;;;;;;2257018;61;20411;-65
2023/02/20 09:14:19;0.00;0.00;0.62;0.00;0.00;0.62;3.43;3.13;;;22.10;23.80;;;;;;2257109;61;20361;-66
2023/02/20 09:17:05;0.00;0.00;0.62;0.00;0.00;0.62;4.60;3.30;;;22.20;23.90;;;;;;2256486;61;20770;-65
2023/02/20 09:19:50;0.00;0.00;0.62;0.00;0.00;0.62;3.73;3.00;;;22.20;23.90;;;;;;2256633;61;20370;-64
2023/02/20 09:22:35;0.00;0.00;0.62;0.00;0.00;0.62;3.77;2.83;;;22.20;23.90;;;;;;2257074;61;20436;-65
2023/02/20 09:25:21;0.00;0.00;0.62;0.00;0.00;0.62;3.40;3.03;;;22.20;23.90;;;;;;2257750;61;20440;-68
2023/02/20 09:28:07;0.00;0.00;0.62;0.00;0.00;0.62;4.40;3.43;;;22.20;23.90;;;;;;2257646;61;20424;-66
2023/02/20 09:30:54;0.00;0.00;0.62;0.00;0.00;0.62;3.40;2.80;;;22.20;23.90;;;;;;2257351;61;20359;-66
2023/02/20 09:33:45;0.00;0.00;0.62;0.00;0.00;0.62;3.87;3.03;;;22.20;23.90;;;;;;2257246;61;20869;-66
2023/02/20 09:36:30;0.00;0.00;0.62;0.00;0.00;0.62;3.40;3.10;;;22.20;23.90;;;;;;2257771;61;20408;-69
2023/02/20 09:39:16;0.00;0.00;0.62;0.00;0.00;0.62;4.00;3.30;;;22.20;23.90;;;;;;2257307;61;20389;-65
2023/02/20 09:42:20;0.00;0.00;0.62;0.00;0.00;0.62;2.90;2.50;;;22.20;23.80;;;;;;2257616;61;20474;-67
2023/02/20 09:45:11;0.00;0.00;0.62;0.00;0.00;0.62;3.47;3.17;;;22.20;23.90;;;;;;2257155;61;20412;-66
2023/02/20 09:48:12;0.00;0.00;0.62;0.00;0.00;0.62;4.13;3.23;;;22.20;23.80;;;;;;2257608;61;20458;-66
2023/02/20 09:51:02;0.00;0.00;0.62;0.00;0.00;0.62;3.47;2.93;;;22.20;23.80;;;;;;2257603;61;20361;-67
2023/02/20 09:53:55;0.00;0.00;0.62;0.00;0.00;0.62;3.73;2.90;;;22.20;23.90;;;;;;2255941;61;20477;-66
2023/02/20 09:56:45;0.00;0.00;0.62;0.00;0.00;0.62;3.60;3.23;;;22.20;23.90;;;;;;2590376;45;20453;-65
2023/02/20 09:59:37;0.00;0.00;0.62;0.00;0.00;0.62;3.00;2.63;;;22.20;23.90;;;;;;2253443;61;20468;-65
2023/02/20 10:02:27;0.00;0.00;0.62;0.00;0.00;0.62;4.20;3.10;;;22.20;23.90;;;;;;2253813;61;20425;-66
2023/02/20 10:05:20;0.00;0.00;0.62;0.00;0.00;0.62;3.67;3.03;;;22.20;23.90;;;;;;2253646;61;20363;-65
2023/02/20 10:08:09;0.00;0.00;0.62;0.00;0.00;0.62;3.63;3.33;;;22.20;23.90;;;;;;2253423;61;20382;-70
2023/02/20 10:10:59;0.00;0.00;0.62;0.00;0.00;0.62;4.50;3.80;;;22.20;23.90;;;;;;2253364;61;20406;-65
2023/02/20 10:13:56;0.00;0.00;0.62;0.00;0.00;0.62;4.70;4.00;;;22.20;23.90;;;;;;2253102;61;20410;-66
2023/02/20 10:16:48;0.00;0.00;0.62;0.00;0.00;0.62;4.43;4.00;;;22.20;23.90;;;;;;2253568;61;20387;-66
2023/02/20 10:19:41;0.00;0.00;0.62;0.00;0.00;0.62;6.10;5.37;;;22.20;23.90;;;;;;2252583;61;20382;-66
2023/02/20 10:22:32;0.00;0.00;0.62;0.00;0.00;0.62;6.10;5.50;;;22.20;23.90;;;;;;2253798;61;20382;-65
2023/02/20 10:25:27;0.00;0.00;0.62;0.00;0.00;0.62;6.60;5.97;;;22.20;23.90;;;;;;2253533;61;20358;-67
2023/02/20 10:28:15;0.00;0.00;0.62;0.00;0.00;0.62;6.80;6.10;;;22.20;23.80;;;;;;2253829;61;20379;-66
2023/02/20 10:31:11;0.00;0.00;0.62;0.00;0.00;0.62;8.93;5.97;;;22.20;23.90;;;;;;2253134;61;20398;-66
2023/02/20 10:34:02;0.00;0.00;0.62;0.00;0.00;0.62;8.10;6.70;;;22.10;23.80;;;;;;2252904;61;20405;-66
2023/02/20 10:36:52;0.00;0.00;0.62;0.00;0.00;0.62;7.50;6.70;;;22.20;23.90;;;;;;2253335;61;20395;-64
2023/02/20 10:39:46;0.00;0.00;0.62;0.00;0.00;0.62;7.43;6.73;;;22.10;23.80;;;;;;2253155;61;20459;-64
2023/02/20 10:42:38;0.00;0.00;0.62;0.00;0.00;0.62;8.40;6.70;;;22.20;23.90;;;;;;2253200;61;20430;-66
2023/02/20 10:45:34;0.00;0.00;0.62;0.00;0.00;0.62;8.53;7.60;;;22.10;23.80;;;;;;2253143;61;20547;-65
2023/02/20 10:48:21;0.00;0.00;0.62;0.00;0.00;0.62;8.77;7.40;;;22.10;23.80;;;;;;2488547;53;20516;-66
2023/02/20 10:51:13;0.00;0.00;0.62;0.00;0.00;0.62;8.43;7.63;;;22.10;23.80;;;;;;2252983;61;20888;-67
2023/02/20 10:54:02;0.00;0.00;0.62;0.00;0.00;0.62;10.30;8.57;;;22.10;23.80;;;;;;2253384;61;20469;-66
2023/02/20 10:56:55;0.00;0.00;0.62;0.00;0.00;0.62;8.90;8.00;;;22.10;23.80;;;;;;2252889;61;20379;-66
2023/02/20 10:59:47;0.00;0.00;0.62;0.00;0.00;0.62;9.17;8.27;;;22.10;23.80;;;;;;2253252;61;20363;-65
2023/02/20 11:02:38;0.00;0.00;0.62;0.00;0.00;0.62;9.00;8.10;;;22.10;23.80;;;;;;2253761;61;20433;-65
2023/02/20 11:05:27;0.00;0.00;0.62;0.00;0.00;0.62;8.70;7.63;;;22.10;23.90;;;;;;2253618;61;20823;-66
2023/02/20 11:08:13;0.00;0.00;0.62;0.00;0.00;0.62;9.70;8.70;;;22.10;23.80;;;;;;2252966;61;20367;-65
2023/02/20 11:11:10;0.00;0.00;0.62;0.00;0.00;0.62;8.80;7.93;;;22.10;23.90;;;;;;2253174;61;20828;-65
2023/02/20 11:13:59;0.00;0.00;0.62;0.00;0.00;0.62;10.30;8.97;;;22.10;23.90;;;;;;2252803;61;20990;-65
2023/02/20 11:16:52;0.00;0.00;0.62;0.00;0.00;0.62;9.33;8.33;;;22.10;23.90;;;;;;2253391;61;20764;-64
2023/02/20 11:19:40;0.00;0.00;0.62;0.00;0.00;0.62;9.30;7.43;;;22.10;23.90;;;;;;2253044;61;20363;-64
2023/02/20 11:22:42;0.00;0.00;0.62;0.00;0.00;0.62;9.73;8.40;;;22.10;23.80;;;;;;2253208;61;20394;-65